Time;durP1;ratioP1;P1;durP2;ratioP2;P2;SDS_P1;SDS_P2;PMS_P1;PMS_P2;Temp;Humidity;BMP_temperature;BMP_pressure;BME280_temperature;BME280_humidity;BME280_pressure;Samples;Min_cycle;Max_cycle;Signal;HPM_P1;HPM_P2
2023/03/27 00:01:56;;;;;;;12.40;7.70;;;;;;;12.02;64.97;97547.50;5022407;28;20079;-72
2023/03/27 00:04:22;;;;;;;10.82;7.28;;;;;;;12.21;65.31;97545.69;5006339;28;20044;-73
2023/03/27 00:06:48;;;;;;;9.98;7.20;;;;;;;12.13;64.58;97546.75;5001324;28;20045;-73
2023/03/27 00:09:18;;;;;;;10.35;7.35;;;;;;;12.45;64.49;97545.66;5001915;28;20160;-74
2023/03/27 00:11:44;;;;;;;10.82;6.88;;;;;;;12.18;64.57;97556.78;5050914;28;20135;-73
2023/03/27 00:14:11;;;;;;;10.13;7.13;;;;;;;12.18;64.25;97559.44;5001041;28;20106;-72
2023/03/27 00:16:37;;;;;;;11.15;6.65;;;;;;;12.10;64.07;97551.72;4985328;28;20052;-74
2023/03/27 00:19:04;;;;;;;8.73;6.40;;;;;;;12.03;63.77;97551.78;5001587;28;20067;-73
2023/03/27 00:21:30;;;;;;;9.38;6.95;;;;;;;11.98;64.08;97556.94;5017344;28;20139;-74
2023/03/27 00:23:56;;;;;;;11.15;7.70;;;;;;;12.10;64.36;97549.88;5001363;28;20463;-74
2023/03/27 00:26:22;;;;;;;12.50;8.02;;;;;;;12.12;64.22;97555.78;4984923;28;20049;-75
2023/03/27 00:28:49;;;;;;;11.27;8.43;;;;;;;12.15;64.06;97551.91;5017792;28;20182;-73
2023/03/27 00:31:16;;;;;;;14.23;8.48;;;;;;;12.32;63.87;97563.59;5017340;28;20095;-74
2023/03/27 00:33:42;;;;;;;12.57;8.10;;;;;;;12.21;63.52;97561.66;5001184;28;20151;-76
2023/03/27 00:36:09;;;;;;;15.63;9.00;;;;;;;12.36;63.82;97568.25;5001083;28;20087;-74
2023/03/27 00:38:35;;;;;;;12.65;8.13;;;;;;;12.16;63.69;97564.97;5002197;28;20068;-77
2023/03/27 00:41:01;;;;;;;10.73;7.97;;;;;;;12.19;64.12;97574.38;5038304;28;20041;-73
2023/03/27 00:43:34;;;;;;;10.40;7.53;;;;;;;12.77;63.75;97573.78;5021706;28;20055;-77
2023/03/27 00:46:09;;;;;;;10.50;7.20;;;;;;;12.79;63.67;97573.56;5054773;28;20048;-73
2023/03/27 00:48:46;;;;;;;10.65;7.07;;;;;;;12.59;63.12;97568.44;5005325;28;20067;-73
2023/03/27 00:51:12;;;;;;;11.70;7.05;;;;;;;12.39;62.66;97570.50;5037999;28;20378;-74
2023/03/27 00:53:37;;;;;;;10.50;7.07;;;;;;;12.30;62.69;97563.00;5005305;28;20119;-73
2023/03/27 00:56:06;;;;;;;10.45;7.18;;;;;;;12.62;62.97;97570.69;5004865;28;20055;-72
2023/03/27 00:58:57;;;;;;;8.77;6.78;;;;;;;12.75;62.12;97573.19;5037741;28;20455;-74
2023/03/27 01:01:27;;;;;;;9.48;6.20;;;;;;;12.58;62.68;97576.63;5028492;28;20118;-74
2023/03/27 01:03:55;;;;;;;9.30;6.43;;;;;;;12.46;62.37;97573.91;5037345;28;20036;-73
2023/03/27 01:06:21;;;;;;;10.25;6.07;;;;;;;12.37;62.20;97567.25;5037509;28;20048;-72
2023/03/27 01:08:47;;;;;;;7.85;5.97;;;;;;;12.24;62.14;97571.88;5054230;28;20150;-73
2023/03/27 01:11:28;;;;;;;8.80;6.40;;;;;;;12.11;61.90;97580.78;5033311;28;20395;-73
2023/03/27 01:14:16;;;;;;;7.40;5.25;;;;;;;12.60;61.80;97570.06;5017024;28;20056;-73
2023/03/27 01:17:00;;;;;;;9.00;6.03;;;;;;;12.76;61.79;97571.34;5000635;28;20064;-73
2023/03/27 01:19:47;;;;;;;10.48;5.93;;;;;;;12.69;61.75;97546.63;5005119;28;20052;-74
2023/03/27 01:22:31;;;;;;;8.85;6.32;;;;;;;12.64;61.78;97552.63;5000223;28;20048;-74
2023/03/27 01:25:02;;;;;;;9.43;6.07;;;;;;;12.01;61.65;97574.31;5000212;28;20148;-73
2023/03/27 01:27:51;;;;;;;8.85;6.45;;;;;;;12.40;62.38;97568.63;5032945;28;20485;-73
2023/03/27 01:30:29;;;;;;;9.75;6.70;;;;;;;12.53;62.09;97557.88;5000103;28;20048;-73
2023/03/27 01:33:24;;;;;;;9.82;6.47;;;;;;;12.70;61.83;97559.72;5000087;28;20056;-75
2023/03/27 01:36:13;;;;;;;10.23;6.07;;;;;;;12.62;61.35;97553.88;4999772;28;20136;-73
2023/03/27 01:38:39;;;;;;;7.38;5.68;;;;;;;12.04;60.98;97558.72;4997378;28;20431;-74
2023/03/27 01:41:48;;;;;;;8.23;6.07;;;;;;;12.64;60.90;97565.94;4998438;28;20811;-75
2023/03/27 01:44:46;;;;;;;5.35;4.53;;;;;;;12.51;61.06;97566.06;4939702;28;20420;-72
2023/03/27 01:47:21;;;;;;;6.93;5.18;;;;;;;12.32;61.56;97561.75;4971810;28;20046;-72
2023/03/27 01:49:53;;;;;;;7.15;5.38;;;;;;;12.20;61.58;97560.84;4984116;28;20049;-72
2023/03/27 01:52:25;;;;;;;8.30;6.00;;;;;;;12.28;61.78;97552.59;5029901;28;20060;-74
2023/03/27 01:54:57;;;;;;;7.53;5.65;;;;;;;12.23;61.61;97563.06;4997287;28;20072;-74
2023/03/27 01:57:27;;;;;;;6.68;4.97;;;;;;;12.14;61.78;97569.69;4997732;28;20048;-74
2023/03/27 02:00:16;;;;;;;9.80;6.15;;;;;;;12.32;62.21;97561.75;4997654;28;20049;-74
2023/03/27 02:03:01;;;;;;;8.77;6.10;;;;;;;12.30;61.71;97561.16;5013061;28;20077;-74
2023/03/27 02:05:37;;;;;;;8.10;6.10;;;;;;;12.16;61.63;97567.66;4997543;28;20066;-73
2023/03/27 02:08:15;;;;;;;8.20;6.07;;;;;;;12.25;61.72;97571.66;4981029;28;20052;-72
2023/03/27 02:10:47;;;;;;;10.15;6.45;;;;;;;12.13;61.95;97573.38;4997516;28;20506;-74
2023/03/27 02:13:22;;;;;;;11.45;7.22;;;;;;;12.13;62.00;97568.06;4997499;28;20052;-72
2023/03/27 02:15:49;;;;;;;10.52;7.43;;;;;;;12.03;61.94;97572.25;4996735;28;20049;-72
2023/03/27 02:18:31;;;;;;;11.63;8.13;;;;;;;12.26;62.21;97573.28;4981109;28;20144;-74
2023/03/27 02:20:58;;;;;;;10.35;7.38;;;;;;;11.81;61.24;97579.78;4997602;28;20052;-73
2023/03/27 02:23:26;;;;;;;12.18;8.07;;;;;;;11.77;61.83;97578.56;4997695;28;20053;-73
2023/03/27 02:25:53;;;;;;;13.07;9.48;;;;;;;11.73;61.80;97588.81;4995174;28;20700;-75
2023/03/27 02:28:38;;;;;;;15.15;9.30;;;;;;;11.58;62.41;97584.81;4978268;28;20072;-74
2023/03/27 02:31:16;;;;;;;13.00;9.50;;;;;;;12.26;62.79;97564.47;4994207;28;20060;-76
2023/03/27 02:34:12;;;;;;;14.88;10.07;;;;;;;12.30;62.24;97579.78;4978305;28;20778;-74
2023/03/27 02:36:44;;;;;;;13.68;8.98;;;;;;;12.31;62.06;97569.94;4978913;28;20144;-74
2023/03/27 02:39:21;;;;;;;13.60;9.40;;;;;;;12.17;61.84;97577.25;4979720;28;20041;-74
2023/03/27 02:41:56;;;;;;;13.75;9.07;;;;;;;12.06;62.36;97582.44;4996036;28;20064;-74
2023/03/27 02:44:36;;;;;;;10.43;7.00;;;;;;;11.23;63.37;97575.59;4981164;28;20122;-73
2023/03/27 02:47:15;;;;;;;12.98;8.35;;;;;;;11.07;66.37;97581.41;4979656;28;20048;-74
2023/03/27 02:50:24;;;;;;;11.63;7.95;;;;;;;11.44;65.84;97586.72;5012039;28;20515;-75
2023/03/27 02:52:55;;;;;;;;;;;;;;;11.45;65.97;97600.84;4990058;28;20508;-74
2023/03/27 02:55:29;;;;;;;12.68;7.78;;;;;;;10.93;67.12;97606.38;4979480;28;19992;-73
2023/03/27 02:57:59;;;;;;;93.35;11.18;;;;;;;10.78;67.86;97592.56;5013166;28;20464;-74
2023/03/27 03:00:42;;;;;;;13.70;7.43;;;;;;;10.68;67.82;97587.66;4999869;28;20045;-73
2023/03/27 03:03:32;;;;;;;15.20;9.48;;;;;;;11.04;68.04;97597.78;4998937;28;20042;-77
2023/03/27 03:06:09;;;;;;;56.90;11.30;;;;;;;10.65;68.13;97593.38;4997716;28;20045;-78
2023/03/27 03:08:37;;;;;;;100.68;11.60;;;;;;;10.34;67.62;97595.88;4981147;28;20484;-80
2023/03/27 03:11:08;;;;;;;78.30;11.68;;;;;;;10.32;71.25;97575.91;4980694;28;20041;-78
2023/03/27 03:13:34;;;;;;;367.45;21.58;;;;;;;10.23;70.82;97589.38;4996559;28;20045;-78
2023/03/27 03:16:00;;;;;;;35.45;11.15;;;;;;;10.43;69.74;97583.22;4997202;28;20069;-77
2023/03/27 03:18:26;;;;;;;32.58;10.93;;;;;;;10.61;68.52;97581.53;4982032;28;20045;-76
2023/03/27 03:20:54;;;;;;;20.08;9.32;;;;;;;10.68;67.91;97585.00;4980888;28;20102;-77
2023/03/27 03:23:21;;;;;;;30.95;11.30;;;;;;;11.03;67.30;97586.31;4980584;28;20042;-79
2023/03/27 03:25:55;;;;;;;27.17;10.35;;;;;;;10.71;67.80;97587.25;4964960;28;20056;-78
2023/03/27 03:28:24;;;;;;;107.95;11.07;;;;;;;10.90;67.38;97588.22;4983753;28;20080;-79
2023/03/27 03:30:52;;;;;;;31.52;10.50;;;;;;;10.92;67.26;97588.81;4999986;28;20101;-79
2023/03/27 03:33:19;;;;;;;23.88;9.75;;;;;;;11.11;66.64;97594.06;5000010;28;20369;-78
2023/03/27 03:35:47;;;;;;;60.28;9.77;;;;;;;11.00;65.60;97594.72;4999856;28;20053;-79
2023/03/27 03:38:25;;;;;;;81.38;9.13;;;;;;;10.34;66.89;97592.41;5001982;28;20051;-79
2023/03/27 03:41:14;;;;;;;32.40;9.00;;;;;;;10.73;67.24;97600.31;4983862;28;20042;-78
2023/03/27 03:43:40;;;;;;;361.95;20.20;;;;;;;9.90;67.89;97595.69;5016166;28;20049;-78
2023/03/27 03:46:07;;;;;;;19.85;8.90;;;;;;;10.02;69.98;97597.50;4984073;28;20056;-78
2023/03/27 03:48:33;;;;;;;15.40;6.63;;;;;;;10.27;68.68;97599.56;5015591;28;20037;-75
2023/03/27 03:50:59;;;;;;;73.38;9.20;;;;;;;10.07;69.23;97595.09;4982935;28;20049;-75
2023/03/27 03:53:25;;;;;;;13.70;6.63;;;;;;;10.21;69.08;97599.38;5000203;28;20061;-72
2023/03/27 03:55:52;;;;;;;28.38;7.30;;;;;;;10.03;70.11;97604.44;4983738;28;20141;-75
2023/03/27 03:58:18;;;;;;;100.57;10.40;;;;;;;9.91;70.77;97595.47;4999562;28;20117;-76
2023/03/27 04:00:46;;;;;;;23.92;8.23;;;;;;;10.24;69.92;97604.25;5002871;28;20060;-75
2023/03/27 04:03:30;;;;;;;175.80;14.90;;;;;;;10.01;70.34;97603.00;5014846;28;20053;-77
2023/03/27 04:06:04;;;;;;;156.23;12.05;;;;;;;10.56;69.48;97607.09;5014662;28;21002;-69
2023/03/27 04:08:30;;;;;;;22.67;8.63;;;;;;;10.77;68.33;97597.03;5014407;28;20049;-67
2023/03/27 04:11:03;;;;;;;44.53;9.52;;;;;;;10.66;67.21;97600.31;5031648;28;20053;-67
2023/03/27 04:13:50;;;;;;;272.55;19.55;;;;;;;10.93;66.58;97601.88;5017675;28;20056;-72
2023/03/27 04:16:27;;;;;;;23.70;8.30;;;;;;;11.00;65.50;97599.19;4999545;28;20054;-72
2023/03/27 04:18:54;;;;;;;16.65;7.65;;;;;;;11.15;65.49;97600.56;5014237;28;20060;-71
2023/03/27 04:21:25;;;;;;;20.23;8.60;;;;;;;11.32;64.56;97600.91;5014149;28;20511;-74
2023/03/27 04:23:51;;;;;;;187.85;12.68;;;;;;;10.99;63.75;97584.28;4974169;28;20048;-73
2023/03/27 04:26:28;;;;;;;25.17;8.10;;;;;;;11.30;64.41;97600.31;5035448;28;20089;-70
2023/03/27 04:29:24;;;;;;;43.72;10.18;;;;;;;11.29;63.96;97604.81;5030918;28;20065;-72
2023/03/27 04:31:59;;;;;;;18.33;7.80;;;;;;;11.51;63.60;97597.31;5029078;28;20045;-77
2023/03/27 04:34:41;;;;;;;185.13;10.77;;;;;;;11.17;62.78;97601.19;5013023;28;20219;-70
2023/03/27 04:37:40;;;;;;;32.20;7.63;;;;;;;11.36;63.91;97607.44;5017605;28;20553;-73
2023/03/27 04:40:24;;;;;;;148.10;9.93;;;;;;;10.89;63.73;97610.47;5010159;28;20045;-72
2023/03/27 04:42:50;;;;;;;109.32;10.48;;;;;;;10.91;64.13;97603.94;5013588;28;20053;-73
2023/03/27 04:45:19;;;;;;;18.35;7.78;;;;;;;11.09;64.58;97603.25;5029521;28;20051;-72
2023/03/27 04:47:47;;;;;;;23.38;8.30;;;;;;;10.99;64.00;97601.06;5029793;28;20143;-75
2023/03/27 04:50:15;;;;;;;21.38;8.77;;;;;;;10.98;63.59;97599.41;4988134;28;20051;-73
2023/03/27 04:52:41;;;;;;;60.97;9.95;;;;;;;11.08;63.89;97605.09;5041857;28;20039;-72
2023/03/27 04:55:10;;;;;;;22.67;9.05;;;;;;;11.00;64.49;97609.81;5037327;28;20537;-72
2023/03/27 04:57:38;;;;;;;105.40;12.00;;;;;;;11.01;64.61;97604.28;5003791;28;20071;-70
2023/03/27 05:00:15;;;;;;;59.97;11.48;;;;;;;11.04;64.63;97611.84;5007715;28;20474;-71
2023/03/27 05:02:46;;;;;;;21.58;9.68;;;;;;;10.86;65.05;97610.88;5053423;28;20048;-71
2023/03/27 05:05:22;;;;;;;22.38;9.98;;;;;;;10.94;65.40;97611.47;5036253;28;20383;-71
2023/03/27 05:07:50;;;;;;;23.15;10.38;;;;;;;10.87;65.67;97615.19;5035620;28;20044;-72
2023/03/27 05:10:20;;;;;;;25.45;10.88;;;;;;;11.13;64.77;97615.09;5037451;28;20043;-70
2023/03/27 05:12:48;;;;;;;21.35;10.85;;;;;;;11.38;64.26;97616.00;5035806;28;20052;-71
2023/03/27 05:15:16;;;;;;;22.25;11.07;;;;;;;11.11;64.75;97620.63;5036124;28;20056;-68
2023/03/27 05:17:46;;;;;;;28.08;12.40;;;;;;;11.12;65.30;97614.28;5019841;28;20101;-68
2023/03/27 05:20:18;;;;;;;23.50;11.35;;;;;;;11.19;66.01;97624.88;4998713;28;20041;-71
2023/03/27 05:22:44;;;;;;;29.55;13.32;;;;;;;11.11;66.23;97614.47;5003662;28;20428;-71
2023/03/27 05:25:24;;;;;;;28.67;12.95;;;;;;;10.93;66.67;97625.78;5004898;28;20041;-71
2023/03/27 05:27:51;;;;;;;29.15;13.27;;;;;;;10.95;66.36;97625.56;5032857;28;20064;-71
2023/03/27 05:30:19;;;;;;;31.20;13.85;;;;;;;11.05;66.91;97620.63;5019387;28;20510;-71
2023/03/27 05:32:53;;;;;;;28.17;14.10;;;;;;;11.11;66.62;97622.44;5036602;28;20052;-71
2023/03/27 05:35:27;;;;;;;28.02;13.65;;;;;;;10.76;66.38;97626.44;5021413;28;20055;-71
2023/03/27 05:37:55;;;;;;;31.33;14.23;;;;;;;10.89;67.18;97632.53;5020149;28;20044;-70
2023/03/27 05:40:30;;;;;;;24.88;13.00;;;;;;;10.87;66.26;97625.81;4991508;28;20131;-72
2023/03/27 05:42:56;;;;;;;29.20;13.90;;;;;;;11.15;66.29;97626.31;4984894;28;20052;-71
2023/03/27 05:45:26;;;;;;;33.63;14.00;;;;;;;11.15;66.26;97626.31;5001658;28;20505;-71
2023/03/27 05:47:59;;;;;;;30.80;13.30;;;;;;;11.48;65.78;97629.66;5015750;28;20368;-72
2023/03/27 05:50:28;;;;;;;31.90;13.20;;;;;;;11.38;66.02;97635.41;5001964;28;20048;-70
2023/03/27 05:52:59;;;;;;;28.65;12.70;;;;;;;11.45;65.34;97630.91;5020759;28;20109;-71
2023/03/27 05:55:35;;;;;;;27.13;13.25;;;;;;;11.14;65.37;97628.16;5021677;28;20048;-71
2023/03/27 05:58:01;;;;;;;29.02;13.57;;;;;;;10.96;65.55;97629.88;5019609;28;20036;-70
2023/03/27 06:00:30;;;;;;;59.78;15.52;;;;;;;11.00;66.54;97639.03;5036934;28;20051;-70
2023/03/27 06:03:00;;;;;;;137.45;16.65;;;;;;;11.07;66.96;97642.50;5021202;28;20070;-71
2023/03/27 06:05:45;;;;;;;81.95;18.05;;;;;;;10.82;66.86;97633.56;5025279;28;20047;-72
2023/03/27 06:08:11;;;;;;;50.65;17.05;;;;;;;10.85;66.98;97633.97;5004149;28;20040;-72
2023/03/27 06:10:39;;;;;;;75.78;18.08;;;;;;;11.15;67.20;97642.25;5003972;28;20037;-72
2023/03/27 06:13:23;;;;;;;61.72;17.45;;;;;;;10.89;66.50;97632.53;5038058;28;20505;-71
2023/03/27 06:15:56;;;;;;;59.47;17.38;;;;;;;11.01;67.07;97635.38;5021332;28;20086;-71
2023/03/27 06:18:41;;;;;;;56.55;18.08;;;;;;;10.80;66.81;97633.78;5039008;28;20486;-72
2023/03/27 06:21:07;;;;;;;45.10;17.77;;;;;;;10.86;66.78;97640.09;5036349;28;20048;-70
2023/03/27 06:23:33;;;;;;;52.33;19.02;;;;;;;10.90;66.42;97639.47;5003685;28;20556;-71
2023/03/27 06:26:00;;;;;;;42.38;17.58;;;;;;;11.06;66.54;97648.81;5036848;28;20518;-71
2023/03/27 06:28:27;;;;;;;41.75;17.95;;;;;;;10.96;66.39;97648.44;5037379;28;20040;-71
2023/03/27 06:30:53;;;;;;;36.20;15.52;;;;;;;11.05;66.17;97652.50;5003727;28;20041;-70
2023/03/27 06:33:28;;;;;;;39.95;16.58;;;;;;;10.97;65.63;97650.91;5022795;28;20044;-72
2023/03/27 06:36:01;;;;;;;38.42;15.73;;;;;;;11.08;65.52;97666.19;5020942;28;20147;-70
2023/03/27 06:38:33;;;;;;;34.05;15.18;;;;;;;10.99;65.71;97661.31;5038047;28;20105;-72
2023/03/27 06:41:00;;;;;;;45.72;16.52;;;;;;;10.97;65.81;97661.53;5020230;28;20047;-72
2023/03/27 06:43:46;;;;;;;46.10;16.55;;;;;;;10.93;66.28;97667.47;5024044;28;20066;-72
2023/03/27 06:46:23;;;;;;;43.47;17.85;;;;;;;11.00;66.17;97668.25;4992440;28;20148;-71
2023/03/27 06:49:06;;;;;;;43.97;17.67;;;;;;;10.96;66.62;97670.50;4948216;28;20050;-72
2023/03/27 06:51:33;;;;;;;43.83;17.70;;;;;;;10.95;66.11;97678.66;4960249;28;20046;-72
2023/03/27 06:54:00;;;;;;;43.08;17.75;;;;;;;10.92;66.80;97671.13;4960440;28;20512;-71
2023/03/27 06:56:30;;;;;;;51.53;18.80;;;;;;;11.12;66.26;97670.06;4976516;28;20058;-71
2023/03/27 06:59:16;;;;;;;42.40;16.92;;;;;;;11.03;66.14;97665.19;4962474;28;20140;-72
2023/03/27 07:01:45;;;;;;;45.47;18.20;;;;;;;11.09;66.08;97664.34;4960259;28;20065;-72
2023/03/27 07:04:37;;;;;;;48.83;18.63;;;;;;;11.10;66.10;97658.03;4955961;28;20054;-71
2023/03/27 07:07:23;;;;;;;43.28;19.20;;;;;;;11.30;65.85;97672.06;4981764;28;20045;-72
2023/03/27 07:09:49;;;;;;;48.80;18.80;;;;;;;11.36;66.36;97666.69;4979677;28;20046;-72
2023/03/27 07:12:20;;;;;;;56.67;19.85;;;;;;;11.54;65.69;97676.66;4964274;28;20132;-72
2023/03/27 07:14:47;;;;;;;44.20;17.52;;;;;;;11.68;65.09;97678.25;4979777;28;20064;-72
2023/03/27 07:17:12;;;;;;;44.08;16.85;;;;;;;11.83;64.70;97666.31;5020176;28;20383;-71
2023/03/27 07:19:47;;;;;;;49.30;18.02;;;;;;;11.93;64.21;97675.66;5025242;28;20041;-72
2023/03/27 07:22:14;;;;;;;50.63;18.67;;;;;;;12.04;64.16;97673.13;5023205;28;20049;-72
2023/03/27 07:24:40;;;;;;;43.42;18.27;;;;;;;12.32;64.25;97676.19;5039833;28;20480;-71
2023/03/27 07:27:07;;;;;;;42.85;17.30;;;;;;;12.31;62.96;97669.25;5023767;28;20048;-72
2023/03/27 07:29:35;;;;;;;47.53;17.55;;;;;;;12.53;62.82;97680.34;5006862;28;20051;-72
2023/03/27 07:32:02;;;;;;;42.22;16.40;;;;;;;12.35;62.95;97678.44;5056070;28;20040;-73
2023/03/27 07:34:36;;;;;;;45.75;15.30;;;;;;;12.32;62.70;97672.72;5008960;28;20470;-71
2023/03/27 07:37:01;;;;;;;39.83;16.55;;;;;;;12.33;62.74;97679.69;5022771;28;20041;-72
2023/03/27 07:39:31;;;;;;;36.95;15.48;;;;;;;12.41;62.41;97669.56;5035188;28;20049;-70
2023/03/27 07:41:57;;;;;;;33.50;14.18;;;;;;;12.43;62.57;97669.34;5003029;28;20360;-70
2023/03/27 07:44:38;;;;;;;;;;;;;;;12.97;62.35;97680.13;5005620;28;20045;-72
2023/03/27 07:47:06;;;;;;;24.20;11.85;;;;;;;12.27;62.86;97668.03;4987324;28;20263;-72
2023/03/27 07:49:33;;;;;;;26.17;11.52;;;;;;;12.31;63.05;97669.25;4986990;28;20040;-72
2023/03/27 07:52:05;;;;;;;20.90;10.10;;;;;;;12.25;63.29;97666.63;5035710;28;20058;-72
2023/03/27 07:54:35;;;;;;;16.63;9.48;;;;;;;12.36;62.68;97668.59;5019742;28;20139;-71
2023/03/27 07:57:02;;;;;;;24.13;8.45;;;;;;;12.53;62.58;97665.16;4986809;28;20213;-70
2023/03/27 07:59:31;;;;;;;16.08;8.00;;;;;;;12.28;62.69;97660.88;5036669;28;20127;-71
2023/03/27 08:02:03;;;;;;;14.40;7.97;;;;;;;12.60;62.13;97668.59;5020109;28;20041;-73
2023/03/27 08:04:33;;;;;;;12.25;7.03;;;;;;;12.74;61.80;97667.44;5004300;28;20044;-74
2023/03/27 08:07:04;;;;;;;13.10;6.60;;;;;;;12.95;60.64;97677.69;4987686;28;20045;-73
2023/03/27 08:09:31;;;;;;;14.32;6.65;;;;;;;12.99;59.90;97681.53;4986764;28;20044;-73
2023/03/27 08:11:57;;;;;;;14.70;6.70;;;;;;;13.04;59.46;97680.91;5018661;28;20132;-74
2023/03/27 08:14:25;;;;;;;12.02;6.80;;;;;;;12.75;60.48;97681.56;5034844;28;20546;-74
2023/03/27 08:16:53;;;;;;;13.43;7.18;;;;;;;12.91;60.37;97676.50;5003613;28;20044;-74
2023/03/27 08:19:24;;;;;;;13.75;6.65;;;;;;;12.83;60.39;97675.97;5003138;28;20376;-73
2023/03/27 08:21:55;;;;;;;10.65;6.50;;;;;;;12.78;60.71;97673.13;5004013;28;20041;-74
2023/03/27 08:24:21;;;;;;;11.60;6.50;;;;;;;12.99;59.54;97678.84;5018596;28;20048;-73
2023/03/27 08:26:57;;;;;;;11.30;6.10;;;;;;;13.04;59.53;97673.72;5026688;28;20127;-73
2023/03/27 08:29:24;;;;;;;10.75;6.53;;;;;;;13.31;58.73;97676.94;4999543;28;20049;-73
2023/03/27 08:31:50;;;;;;;10.88;6.05;;;;;;;13.20;58.86;97677.66;4987439;28;20530;-73
2023/03/27 08:34:16;;;;;;;12.48;5.97;;;;;;;13.37;58.37;97671.53;4990445;28;20138;-73
2023/03/27 08:36:45;;;;;;;15.88;8.63;;;;;;;12.91;60.17;97673.84;4982495;28;20052;-72
2023/03/27 08:39:12;;;;;;;11.02;6.13;;;;;;;13.08;59.58;97671.44;4974492;28;20491;-73
2023/03/27 08:42:02;;;;;;;10.85;6.00;;;;;;;13.22;60.10;97676.38;4977919;28;20050;-73
2023/03/27 08:44:33;;;;;;;9.48;5.82;;;;;;;13.40;59.65;97670.25;4967514;28;20046;-72
2023/03/27 08:47:16;;;;;;;13.20;7.57;;;;;;;13.30;58.27;97681.44;4994972;28;20491;-73
2023/03/27 08:49:56;;;;;;;9.50;5.82;;;;;;;13.63;57.40;97693.56;5012070;28;20065;-70
2023/03/27 08:52:27;;;;;;;14.13;7.13;;;;;;;13.98;57.80;97684.66;4983514;28;20057;-72
2023/03/27 08:55:17;;;;;;;7.88;5.28;;;;;;;14.43;56.15;97680.53;4985929;28;20454;-73
2023/03/27 08:57:50;;;;;;;9.50;5.10;;;;;;;14.03;55.73;97684.81;4993863;28;20522;-73
2023/03/27 09:00:25;;;;;;;12.38;4.88;;;;;;;14.20;54.60;97701.81;4998778;28;20044;-73
2023/03/27 09:03:16;;;;;;;7.82;4.55;;;;;;;14.24;54.11;97705.69;5037902;28;20118;-72
2023/03/27 09:06:10;;;;;;;8.57;4.95;;;;;;;14.75;54.46;97705.06;5034863;28;20053;-72
2023/03/27 09:08:41;;;;;;;10.07;4.47;;;;;;;14.74;52.38;97706.97;5038366;28;20117;-73
2023/03/27 09:11:33;;;;;;;9.93;5.88;;;;;;;14.54;51.20;97713.66;5037489;28;20402;-73
2023/03/27 09:14:24;;;;;;;5.68;3.42;;;;;;;15.40;50.85;97717.31;5008548;28;20100;-72
2023/03/27 09:16:51;;;;;;;7.47;3.92;;;;;;;15.02;50.42;97712.41;5037583;28;20048;-73
2023/03/27 09:19:41;;;;;;;7.60;3.53;;;;;;;15.04;51.15;97712.16;5022564;28;20045;-73
2023/03/27 09:22:20;;;;;;;6.75;3.60;;;;;;;15.32;51.09;97722.97;5020588;28;20436;-74
2023/03/27 09:25:09;;;;;;;4.70;3.50;;;;;;;14.98;50.56;97723.81;5038533;28;20055;-73
2023/03/27 09:27:56;;;;;;;4.97;3.40;;;;;;;14.87;50.14;97725.44;5038198;28;20032;-73
2023/03/27 09:30:41;;;;;;;5.80;3.60;;;;;;;14.72;50.24;97713.56;5039607;28;20090;-73
2023/03/27 09:33:20;;;;;;;4.57;3.35;;;;;;;14.83;49.84;97731.47;5054067;28;20047;-73
2023/03/27 09:35:47;;;;;;;5.35;3.00;;;;;;;15.74;46.93;97740.50;5037511;28;20130;-73
2023/03/27 09:38:25;;;;;;;6.20;3.08;;;;;;;15.83;46.36;97740.94;5021211;28;20048;-73
2023/03/27 09:40:56;;;;;;;4.93;3.08;;;;;;;16.09;47.26;97741.22;5020043;28;20136;-73
2023/03/27 09:44:16;;;;;;;4.22;2.97;;;;;;;16.54;46.99;97738.59;5006080;28;20530;-72
2023/03/27 09:46:46;;;;;;;4.35;3.03;;;;;;;17.42;44.67;97731.38;4992416;28;20045;-73
2023/03/27 09:49:19;;;;;;;3.85;2.78;;;;;;;17.99;43.17;97738.06;5001336;28;20053;-73
2023/03/27 09:51:53;;;;;;;5.45;3.42;;;;;;;18.04;42.36;97721.19;4985917;28;20040;-73
2023/03/27 09:54:51;;;;;;;4.05;3.10;;;;;;;18.75;40.56;97730.81;5004802;28;20059;-73
2023/03/27 09:57:19;;;;;;;7.22;3.72;;;;;;;18.87;40.23;97739.50;5001225;28;20073;-73
2023/03/27 09:59:58;;;;;;;3.08;2.65;;;;;;;20.83;36.33;97734.00;5001185;28;20045;-73
2023/03/27 10:02:27;;;;;;;3.08;2.60;;;;;;;21.03;35.71;97727.81;5017514;28;20055;-73
2023/03/27 10:04:59;;;;;;;4.88;2.80;;;;;;;22.51;33.90;97723.31;5033703;28;20049;-72
2023/03/27 10:07:30;;;;;;;4.45;2.63;;;;;;;23.96;30.61;97732.84;5051628;28;20036;-73
2023/03/27 10:10:18;;;;;;;4.43;3.08;;;;;;;22.96;31.30;97731.06;5035834;28;20441;-74
2023/03/27 10:13:10;;;;;;;4.97;2.92;;;;;;;21.85;33.06;97711.97;5026848;28;20059;-73
2023/03/27 10:15:42;;;;;;;4.38;2.83;;;;;;;21.17;33.20;97723.47;5002429;28;20451;-73
2023/03/27 10:18:30;;;;;;;4.38;3.00;;;;;;;21.33;33.32;97727.75;5003021;28;20059;-73
2023/03/27 10:21:31;;;;;;;3.67;2.60;;;;;;;20.83;33.47;97733.16;5030191;28;20510;-73
2023/03/27 10:24:00;;;;;;;4.22;2.95;;;;;;;19.00;36.31;97704.13;5017181;28;20356;-73
2023/03/27 10:26:47;;;;;;;4.25;2.53;;;;;;;19.69;36.33;97717.22;5036132;28;20483;-73
2023/03/27 10:29:23;;;;;;;3.47;2.97;;;;;;;19.80;36.03;97724.25;5000710;28;20045;-73
2023/03/27 10:31:52;;;;;;;7.63;2.95;;;;;;;19.50;36.82;97721.41;5016776;28;20119;-73
2023/03/27 10:34:58;;;;;;;3.97;2.97;;;;;;;19.53;36.84;97730.84;4953813;28;20063;-73
2023/03/27 10:37:43;;;;;;;6.13;2.72;;;;;;;19.70;35.91;97735.00;4943670;28;20054;-73
2023/03/27 10:40:36;;;;;;;4.10;2.90;;;;;;;19.46;36.36;97716.81;4945140;28;20043;-73
2023/03/27 10:43:15;;;;;;;5.05;3.47;;;;;;;19.12;36.72;97724.38;4942892;28;20059;-73
2023/03/27 10:45:50;;;;;;;5.93;3.92;;;;;;;20.06;36.17;97734.06;5033995;28;20149;-72
2023/03/27 10:48:45;;;;;;;4.65;3.00;;;;;;;21.54;34.06;97748.28;5037222;28;20064;-71
2023/03/27 10:51:50;;;;;;;4.28;2.90;;;;;;;20.99;33.74;97751.81;5004515;28;20045;-71
2023/03/27 10:54:30;;;;;;;7.50;3.13;;;;;;;19.45;36.31;97742.13;5019640;28;20055;-72
2023/03/27 10:56:59;;;;;;;7.75;3.58;;;;;;;17.67;39.47;97736.31;5020314;28;20060;-72
2023/03/27 10:59:33;;;;;;;5.35;3.70;;;;;;;17.79;40.37;97734.34;5003719;28;20037;-72
2023/03/27 11:02:07;;;;;;;3.97;3.25;;;;;;;18.01;40.00;97729.75;5020663;28;20041;-73
2023/03/27 11:04:49;;;;;;;4.13;3.22;;;;;;;18.28;40.04;97741.34;5020142;28;20127;-72
2023/03/27 11:07:40;;;;;;;;;;;;;;;17.69;40.41;97742.25;5020646;28;20044;-72
2023/03/27 11:10:17;;;;;;;9.00;3.22;;;;;;;17.69;41.61;97736.88;5019125;28;19944;-71
2023/03/27 11:12:53;;;;;;;6.47;4.18;;;;;;;17.48;42.23;97732.31;5019585;28;20134;-73
2023/03/27 11:15:32;;;;;;;7.43;3.75;;;;;;;17.13;42.60;97732.56;5003769;28;20048;-73
2023/03/27 11:18:02;;;;;;;6.47;4.00;;;;;;;17.02;43.87;97748.75;5020337;28;20131;-73
2023/03/27 11:20:42;;;;;;;5.65;3.90;;;;;;;16.25;45.39;97745.78;5005468;28;20483;-71
2023/03/27 11:23:30;;;;;;;5.15;3.85;;;;;;;16.46;45.27;97742.47;5022195;28;20493;-73
2023/03/27 11:26:43;;;;;;;6.10;4.07;;;;;;;16.64;45.28;97757.50;5032957;28;20176;-72
2023/03/27 11:29:33;;;;;;;;;;;;;;;;;;;;;
2023/03/27 11:32:34;;;;;;;8.10;4.25;;;;;;;16.36;45.80;97758.31;5011654;28;20418;-73
2023/03/27 11:35:13;;;;;;;7.32;4.15;;;;;;;15.78;48.17;97759.56;5019924;28;20128;-70
2023/03/27 11:37:52;;;;;;;7.15;5.13;;;;;;;15.29;48.06;97758.22;5022596;28;20098;-67
2023/03/27 11:40:43;;;;;;;7.40;5.18;;;;;;;15.07;50.68;97757.97;5038559;28;20071;-69
2023/03/27 11:43:11;;;;;;;10.25;4.40;;;;;;;15.15;50.17;97757.63;5036147;28;20119;-69
2023/03/27 11:46:11;;;;;;;5.90;4.30;;;;;;;15.65;49.85;97765.19;5021528;28;20048;-71
2023/03/27 11:48:43;;;;;;;5.00;3.47;;;;;;;15.70;48.12;97768.78;5036947;28;20068;-71
2023/03/27 11:51:27;;;;;;;5.85;4.15;;;;;;;16.61;46.79;97777.59;5032202;28;20044;-69
2023/03/27 11:54:29;;;;;;;5.57;3.80;;;;;;;17.10;45.59;97757.19;5014770;28;20101;-73
2023/03/27 11:57:07;;;;;;;6.07;4.25;;;;;;;16.74;45.22;97774.56;4983145;28;20044;-74
2023/03/27 12:00:24;;;;;;;7.63;4.43;;;;;;;16.96;44.99;97785.41;5021944;28;20046;-67
2023/03/27 12:03:09;;;;;;;5.35;3.92;;;;;;;16.81;45.88;97769.88;5037953;28;20035;-70
2023/03/27 12:05:39;;;;;;;7.25;4.75;;;;;;;15.42;48.29;97776.75;5019596;28;20049;-69